createdAt,value
2022-11-09T00:00:39.999Z,9.05
2022-11-09T00:03:13.295Z,10.15
2022-11-09T00:05:54.817Z,9.70
2022-11-09T00:08:27.523Z,8.80
2022-11-09T00:11:03.407Z,8.82
2022-11-09T00:13:36.637Z,9.70
2022-11-09T00:16:12.341Z,10.35
2022-11-09T00:18:47.506Z,11.23
2022-11-09T00:21:21.245Z,10.27
2022-11-09T00:23:53.415Z,10.98
2022-11-09T00:26:26.305Z,9.85
2022-11-09T00:28:58.362Z,10.10
2022-11-09T00:31:31.718Z,10.60
2022-11-09T00:34:03.705Z,8.68
2022-11-09T00:36:35.684Z,9.57
2022-11-09T00:39:08.695Z,10.88
2022-11-09T00:41:40.641Z,11.85
2022-11-09T00:44:12.582Z,10.75
2022-11-09T00:46:45.968Z,11.02
2022-11-09T00:49:17.888Z,11.48
2022-11-09T00:51:49.959Z,9.75
2022-11-09T00:54:21.876Z,9.88
2022-11-09T00:56:53.954Z,11.63
2022-11-09T00:59:26.048Z,9.82
2022-11-09T01:01:59.349Z,10.43
2022-11-09T01:04:31.278Z,9.38
2022-11-09T01:07:07.020Z,10.38
2022-11-09T01:09:39.357Z,9.93
2022-11-09T01:12:11.331Z,10.93
2022-11-09T01:14:43.537Z,11.05
2022-11-09T01:17:16.849Z,10.95
2022-11-09T01:19:49.162Z,10.45
2022-11-09T01:22:21.119Z,11.32
2022-11-09T01:24:53.061Z,10.25
2022-11-09T01:27:25.004Z,10.90
2022-11-09T01:29:56.906Z,10.05
2022-11-09T01:32:33.217Z,10.73
2022-11-09T01:35:05.997Z,10.52
2022-11-09T01:37:38.015Z,10.77
2022-11-09T01:40:11.189Z,10.18
2022-11-09T01:42:43.650Z,10.95
2022-11-09T01:45:27.806Z,10.15
2022-11-09T01:48:04.812Z,11.82
2022-11-09T01:50:44.299Z,12.10
2022-11-09T01:53:19.807Z,10.40
2022-11-09T01:55:55.816Z,11.68
2022-11-09T01:58:30.794Z,12.45
2022-11-09T02:01:05.199Z,12.32
2022-11-09T02:03:44.264Z,12.95
2022-11-09T02:06:20.377Z,12.23
2022-11-09T02:08:55.767Z,12.40
2022-11-09T02:11:32.011Z,11.65
2022-11-09T02:14:05.905Z,12.75
2022-11-09T02:16:38.344Z,11.43
2022-11-09T02:19:12.336Z,12.65
2022-11-09T02:21:45.913Z,14.05
2022-11-09T02:24:18.731Z,14.10
2022-11-09T02:26:52.346Z,12.88
2022-11-09T02:29:28.376Z,14.13
2022-11-09T02:32:06.694Z,12.90
2022-11-09T02:34:39.174Z,13.43
2022-11-09T02:37:12.722Z,16.20
2022-11-09T02:39:44.671Z,13.80
2022-11-09T02:42:21.382Z,13.13
2022-11-09T02:44:58.743Z,13.85
2022-11-09T02:47:30.882Z,13.20
2022-11-09T02:50:03.882Z,12.68
2022-11-09T02:52:37.187Z,14.18
2022-11-09T02:55:09.741Z,14.35
2022-11-09T02:57:41.710Z,13.60
2022-11-09T03:00:16.942Z,12.98
2022-11-09T03:02:49.509Z,14.93
2022-11-09T03:05:21.658Z,14.32
2022-11-09T03:07:55.189Z,14.55
2022-11-09T03:10:27.812Z,14.15
2022-11-09T03:13:00.710Z,13.73
2022-11-09T03:15:32.698Z,13.63
2022-11-09T03:18:05.070Z,15.38
2022-11-09T03:20:36.989Z,13.32
2022-11-09T03:23:11.146Z,14.60
2022-11-09T03:25:44.617Z,13.32
2022-11-09T03:28:17.245Z,14.02
2022-11-09T03:30:49.659Z,14.40
2022-11-09T03:33:21.944Z,13.50
2022-11-09T03:35:54.131Z,14.05
2022-11-09T03:38:28.293Z,15.00
2022-11-09T03:41:01.985Z,15.25
2022-11-09T03:43:35.085Z,12.90
2022-11-09T03:46:07.029Z,15.07
2022-11-09T03:48:38.947Z,15.55
2022-11-09T03:51:10.883Z,13.30
2022-11-09T03:53:44.262Z,14.32
2022-11-09T03:56:16.216Z,12.55
2022-11-09T03:58:48.235Z,13.63
2022-11-09T04:01:20.242Z,13.98
2022-11-09T04:03:52.196Z,12.55
2022-11-09T04:06:24.133Z,13.25
2022-11-09T04:08:57.485Z,15.20
2022-11-09T04:11:29.363Z,13.10
2022-11-09T04:14:01.477Z,12.98
2022-11-09T04:16:33.406Z,13.77
2022-11-09T04:19:05.351Z,13.15
2022-11-09T04:21:37.345Z,14.93
2022-11-09T04:24:10.702Z,15.38
2022-11-09T04:26:42.590Z,16.02
2022-11-09T04:29:14.628Z,15.45
2022-11-09T04:31:48.723Z,13.88
2022-11-09T04:34:20.694Z,14.05
2022-11-09T04:36:52.794Z,15.57
2022-11-09T04:39:26.163Z,13.70
2022-11-09T04:41:58.068Z,14.98
2022-11-09T04:44:30.013Z,16.27
2022-11-09T04:47:01.977Z,15.45
2022-11-09T04:49:33.879Z,14.13
2022-11-09T04:52:05.860Z,15.32
2022-11-09T04:54:39.194Z,15.18
2022-11-09T04:57:11.090Z,15.52
2022-11-09T04:59:43.052Z,15.82
2022-11-09T05:02:14.986Z,14.13
2022-11-09T05:04:46.961Z,14.52
2022-11-09T05:07:18.986Z,14.73
2022-11-09T05:09:52.380Z,14.05
2022-11-09T05:12:24.262Z,13.65
2022-11-09T05:14:56.207Z,13.98
2022-11-09T05:17:28.158Z,12.95
2022-11-09T05:20:00.135Z,13.95
2022-11-09T05:22:50.521Z,13.60
2022-11-09T05:27:55.565Z,14.15
2022-11-09T05:30:27.529Z,14.20
2022-11-09T05:32:59.705Z,14.35
2022-11-09T05:35:32.727Z,12.73
2022-11-09T05:38:04.627Z,14.55
2022-11-09T05:40:37.944Z,14.38
2022-11-09T05:43:09.977Z,12.23
2022-11-09T05:45:43.894Z,12.98
2022-11-09T05:48:18.169Z,13.27
2022-11-09T05:50:50.092Z,13.35
2022-11-09T05:53:32.050Z,12.77
2022-11-09T05:56:08.375Z,13.25
2022-11-09T05:58:41.486Z,14.15
2022-11-09T06:01:15.789Z,12.43
2022-11-09T06:03:48.257Z,12.20
2022-11-09T06:06:20.197Z,12.50
2022-11-09T06:08:52.258Z,12.93
2022-11-09T06:11:25.574Z,12.48
2022-11-09T06:13:57.515Z,12.02
2022-11-09T06:16:29.462Z,13.13
2022-11-09T06:19:01.892Z,12.52
2022-11-09T06:21:33.834Z,15.05
2022-11-09T06:24:06.338Z,12.57
2022-11-09T06:26:39.632Z,14.20
2022-11-09T06:29:11.541Z,12.60
2022-11-09T06:31:43.463Z,12.57
2022-11-09T06:34:15.664Z,12.30
2022-11-09T06:36:47.552Z,12.82
2022-11-09T06:39:19.509Z,12.68
2022-11-09T06:41:52.812Z,12.70
2022-11-09T06:44:24.875Z,12.45
2022-11-09T06:46:56.733Z,13.07
2022-11-09T06:49:28.766Z,13.15
2022-11-09T06:52:00.683Z,11.18
2022-11-09T06:54:33.811Z,12.90
2022-11-09T06:57:07.231Z,11.40
2022-11-09T06:59:39.243Z,11.15
2022-11-09T07:02:14.931Z,11.55
2022-11-09T07:04:46.858Z,10.80
2022-11-09T07:07:22.326Z,12.15
2022-11-09T07:09:57.504Z,11.30
2022-11-09T07:12:31.298Z,12.77
2022-11-09T07:15:04.937Z,11.90
2022-11-09T07:17:39.164Z,11.73
2022-11-09T07:20:12.111Z,10.65
2022-11-09T07:22:44.096Z,11.75
2022-11-09T07:25:16.208Z,10.45
2022-11-09T07:27:49.678Z,11.73
2022-11-09T07:30:21.746Z,10.95
2022-11-09T07:33:08.686Z,11.02
2022-11-09T07:35:42.111Z,10.05
2022-11-09T07:38:16.007Z,9.40
2022-11-09T07:40:47.952Z,10.65
2022-11-09T07:43:21.489Z,13.35
2022-11-09T07:45:57.942Z,9.57
2022-11-09T07:48:29.880Z,10.55
2022-11-09T07:51:02.057Z,10.63
2022-11-09T07:53:34.021Z,9.35
2022-11-09T07:56:06.645Z,9.23
2022-11-09T07:58:40.085Z,10.88
2022-11-09T08:01:12.471Z,9.73
2022-11-09T08:03:44.510Z,9.70
2022-11-09T08:06:18.585Z,8.73
2022-11-09T08:08:50.982Z,9.45
2022-11-09T08:11:23.059Z,9.35
2022-11-09T08:13:56.839Z,8.43
2022-11-09T08:16:31.097Z,8.45
2022-11-09T08:19:08.987Z,8.75
2022-11-09T08:21:41.004Z,9.02
2022-11-09T08:24:12.908Z,9.13
2022-11-09T08:26:44.815Z,8.20
2022-11-09T08:29:18.177Z,8.77
2022-11-09T08:31:50.873Z,8.75
2022-11-09T08:34:22.966Z,9.40
2022-11-09T08:36:54.897Z,8.55
2022-11-09T08:39:26.871Z,8.13
2022-11-09T08:41:58.796Z,8.82
2022-11-09T08:44:32.160Z,9.40
2022-11-09T08:47:04.146Z,8.55
2022-11-09T08:49:36.100Z,8.75
2022-11-09T08:52:08.151Z,7.75
2022-11-09T08:54:40.085Z,7.57
2022-11-09T08:57:12.151Z,8.15
2022-11-09T08:59:46.078Z,8.48
2022-11-09T09:02:18.150Z,7.72
2022-11-09T09:04:50.209Z,8.25
2022-11-09T09:07:22.216Z,7.40
2022-11-09T09:09:54.239Z,7.68
2022-11-09T09:12:26.274Z,7.55
2022-11-09T09:14:59.574Z,6.95
2022-11-09T09:17:31.985Z,6.75
2022-11-09T09:20:04.755Z,7.47
2022-11-09T09:22:36.868Z,7.97
2022-11-09T09:25:09.483Z,9.50
2022-11-09T09:27:43.710Z,10.02
2022-11-09T09:30:17.727Z,8.57
2022-11-09T09:32:49.668Z,8.93
2022-11-09T09:35:21.667Z,7.68
2022-11-09T09:37:53.742Z,7.85
2022-11-09T09:40:31.835Z,7.22
2022-11-09T09:43:04.047Z,6.75
2022-11-09T09:45:50.272Z,7.53
2022-11-09T09:48:39.617Z,6.85
2022-11-09T09:51:17.162Z,7.35
2022-11-09T09:53:54.458Z,6.90
2022-11-09T09:56:31.171Z,6.60
2022-11-09T09:59:11.578Z,6.90
2022-11-09T10:04:21.579Z,8.00
2022-11-09T10:07:03.859Z,7.40
2022-11-09T10:09:53.014Z,8.00
2022-11-09T10:12:33.490Z,7.35
2022-11-09T10:18:06.152Z,7.28
2022-11-09T10:20:59.192Z,7.80
2022-11-09T10:23:43.879Z,7.00
2022-11-09T10:26:19.392Z,6.45
2022-11-09T10:29:15.219Z,7.70
2022-11-09T10:31:50.460Z,7.55
2022-11-09T10:34:27.548Z,7.65
2022-11-09T10:37:07.163Z,7.53
2022-11-09T10:39:47.549Z,7.70
2022-11-09T10:42:37.919Z,7.75
2022-11-09T10:45:30.949Z,7.05
2022-11-09T10:48:32.327Z,7.78
2022-11-09T10:51:38.543Z,8.40
2022-11-09T10:54:32.480Z,8.85
2022-11-09T10:57:24.280Z,8.15
2022-11-09T11:00:17.117Z,7.50
2022-11-09T11:03:15.852Z,7.38
2022-11-09T11:06:07.786Z,7.75
2022-11-09T11:12:14.892Z,7.93
2022-11-09T11:15:21.679Z,5.13
2022-11-09T11:18:17.745Z,7.55
2022-11-09T11:21:18.483Z,7.00
2022-11-09T11:24:15.919Z,8.13
2022-11-09T11:27:14.274Z,7.22
2022-11-09T11:30:11.894Z,8.35
2022-11-09T11:33:06.245Z,7.32
2022-11-09T11:36:02.454Z,7.80
2022-11-09T11:39:01.649Z,8.13
2022-11-09T11:42:14.660Z,8.20
2022-11-09T11:45:39.618Z,7.57
2022-11-09T11:48:55.316Z,8.40
2022-11-09T11:51:56.167Z,8.15
2022-11-09T11:55:04.637Z,7.45
2022-11-09T11:58:18.120Z,7.40
2022-11-09T12:01:24.209Z,8.10
2022-11-09T12:04:32.092Z,9.52
2022-11-09T12:07:34.688Z,9.82
2022-11-09T12:10:38.550Z,8.30
2022-11-09T12:13:49.450Z,7.60
2022-11-09T12:16:48.367Z,8.43
2022-11-09T12:19:58.802Z,8.25
2022-11-09T12:23:01.339Z,8.00
2022-11-09T12:25:58.878Z,7.78
2022-11-09T12:29:07.726Z,8.75
2022-11-09T12:32:12.341Z,8.35
2022-11-09T12:35:21.840Z,7.50
2022-11-09T12:38:17.004Z,9.15
2022-11-09T12:41:13.642Z,8.20
2022-11-09T12:44:16.886Z,7.55
2022-11-09T12:47:15.492Z,9.18
2022-11-09T12:50:06.610Z,7.72
2022-11-09T12:52:57.237Z,8.05
2022-11-09T12:58:40.573Z,8.70
2022-11-09T13:01:48.095Z,8.18
2022-11-09T13:04:38.655Z,9.63
2022-11-09T13:07:49.862Z,9.20
2022-11-09T13:10:41.092Z,12.98
2022-11-09T13:13:31.471Z,10.88
2022-11-09T13:16:34.640Z,11.50
2022-11-09T13:19:54.167Z,10.60
2022-11-09T13:23:02.561Z,10.52
2022-11-09T13:25:53.417Z,9.20
2022-11-09T13:29:05.095Z,10.23
2022-11-09T13:32:01.430Z,11.43
2022-11-09T13:34:54.820Z,9.95
2022-11-09T13:37:56.723Z,10.85
2022-11-09T13:40:48.565Z,11.57
2022-11-09T13:43:40.662Z,11.18
2022-11-09T13:46:38.249Z,11.60
2022-11-09T13:49:45.792Z,12.13
2022-11-09T13:52:59.217Z,10.27
2022-11-09T13:55:49.954Z,10.15
2022-11-09T13:58:41.574Z,12.57
2022-11-09T14:01:37.994Z,11.00
2022-11-09T14:04:30.833Z,11.85
2022-11-09T14:07:24.164Z,11.98
2022-11-09T14:10:23.976Z,11.73
2022-11-09T14:13:47.472Z,12.77
2022-11-09T14:16:47.722Z,12.63
2022-11-09T14:19:48.370Z,11.93
2022-11-09T14:22:40.855Z,11.70
2022-11-09T14:25:36.528Z,15.13
2022-11-09T14:28:28.471Z,13.23
2022-11-09T14:31:28.241Z,11.63
2022-11-09T14:34:18.714Z,15.10
2022-11-09T14:37:11.673Z,19.80
2022-11-09T14:40:02.482Z,15.68
2022-11-09T14:45:49.636Z,14.32
2022-11-09T14:48:44.848Z,14.18
2022-11-09T14:51:39.229Z,15.35
2022-11-09T14:54:30.044Z,14.40
2022-11-09T14:57:23.057Z,14.95
2022-11-09T15:00:31.506Z,14.00
2022-11-09T15:03:27.250Z,17.38
2022-11-09T15:06:18.144Z,14.73
2022-11-09T15:09:14.720Z,13.63
2022-11-09T15:12:14.346Z,12.73
2022-11-09T15:15:07.215Z,12.93
2022-11-09T15:17:59.978Z,15.55
2022-11-09T15:21:10.278Z,15.40
2022-11-09T15:24:14.412Z,19.77
2022-11-09T15:27:28.539Z,25.67
2022-11-09T15:30:34.331Z,18.88
2022-11-09T15:33:29.803Z,19.73
2022-11-09T15:36:24.668Z,20.40
2022-11-09T15:39:17.640Z,16.60
2022-11-09T15:42:10.630Z,17.00
2022-11-09T15:45:01.317Z,20.20
2022-11-09T15:47:54.010Z,20.92
2022-11-09T15:50:46.248Z,19.30
2022-11-09T15:53:36.572Z,19.40
2022-11-09T15:56:26.840Z,18.40
2022-11-09T15:59:21.025Z,17.55
2022-11-09T16:02:12.196Z,17.73
2022-11-09T16:05:02.318Z,17.13
2022-11-09T16:07:55.040Z,17.05
2022-11-09T16:10:45.762Z,18.75
2022-11-09T16:13:36.741Z,18.25
2022-11-09T16:16:27.503Z,17.30
2022-11-09T16:19:17.680Z,18.58
2022-11-09T16:22:08.545Z,17.08
2022-11-09T16:25:00.367Z,17.48
2022-11-09T16:27:51.529Z,20.33
2022-11-09T16:30:46.544Z,18.77
2022-11-09T16:33:37.265Z,20.17
2022-11-09T16:36:28.715Z,22.60
2022-11-09T16:39:19.237Z,22.35
2022-11-09T16:42:13.205Z,18.42
2022-11-09T16:45:07.239Z,19.52
2022-11-09T16:47:57.574Z,18.27
2022-11-09T16:50:48.758Z,15.82
2022-11-09T16:53:39.050Z,17.20
2022-11-09T16:56:29.136Z,20.33
2022-11-09T16:59:20.825Z,17.15
2022-11-09T17:02:11.086Z,17.33
2022-11-09T17:05:01.841Z,16.27
2022-11-09T17:10:44.053Z,24.17
2022-11-09T17:13:34.296Z,25.63
2022-11-09T17:19:16.454Z,18.75
2022-11-09T17:22:08.026Z,16.30
2022-11-09T17:24:58.525Z,14.85
2022-11-09T17:27:49.071Z,14.82
2022-11-09T17:30:41.914Z,18.35
2022-11-09T17:33:33.822Z,15.82
2022-11-09T17:36:41.902Z,16.13
2022-11-09T17:42:25.183Z,15.63
2022-11-09T17:45:16.185Z,17.85
2022-11-09T17:48:07.523Z,15.48
2022-11-09T17:51:00.035Z,20.23
2022-11-09T17:53:50.437Z,22.80
2022-11-09T17:56:41.142Z,35.28
2022-11-09T17:59:31.265Z,19.45
2022-11-09T18:02:21.558Z,16.27
2022-11-09T18:05:11.821Z,16.33
2022-11-09T18:08:04.146Z,16.80
2022-11-09T18:10:57.021Z,15.50
2022-11-09T18:13:49.004Z,16.95
2022-11-09T18:16:39.463Z,17.88
2022-11-09T18:19:29.848Z,20.75
2022-11-09T18:22:20.090Z,20.02
2022-11-09T18:25:12.334Z,33.00
2022-11-09T18:28:03.345Z,17.75
2022-11-09T18:30:59.846Z,24.33
2022-11-09T18:33:50.557Z,17.75
2022-11-09T18:36:41.703Z,19.88
2022-11-09T18:39:32.307Z,17.85
2022-11-09T18:45:14.462Z,18.27
2022-11-09T18:48:05.185Z,17.42
2022-11-09T18:50:57.219Z,19.33
2022-11-09T18:53:48.547Z,19.40
2022-11-09T18:56:39.180Z,17.55
2022-11-09T18:59:30.758Z,20.33
2022-11-09T19:02:21.517Z,21.67
2022-11-09T19:05:11.878Z,20.58
2022-11-09T19:08:02.063Z,32.67
2022-11-09T19:10:52.237Z,22.98
2022-11-09T19:13:42.565Z,20.00
2022-11-09T19:19:27.107Z,19.17
2022-11-09T19:22:19.192Z,21.58
2022-11-09T19:25:09.624Z,22.73
2022-11-09T19:27:59.850Z,37.42
2022-11-09T19:30:50.082Z,46.65
2022-11-09T19:33:42.181Z,45.40
2022-11-09T19:36:33.783Z,24.15
2022-11-09T19:39:27.318Z,27.85
2022-11-09T19:42:21.592Z,26.65
2022-11-09T19:45:12.740Z,22.88
2022-11-09T19:48:03.460Z,33.97
2022-11-09T19:53:49.053Z,23.98
2022-11-09T19:56:39.606Z,25.35
2022-11-09T19:59:29.859Z,24.05
2022-11-09T20:02:20.196Z,22.80
2022-11-09T20:08:04.342Z,25.15
2022-11-09T20:10:55.081Z,24.55
2022-11-09T20:13:45.587Z,27.25
2022-11-09T20:19:26.986Z,30.45
2022-11-09T20:22:17.285Z,28.85
2022-11-09T20:25:09.804Z,24.60
2022-11-09T20:27:59.966Z,24.42
2022-11-09T20:30:50.139Z,23.67
2022-11-09T20:33:40.472Z,25.27
2022-11-09T20:36:31.178Z,23.25
2022-11-09T20:39:21.331Z,24.27
2022-11-09T20:42:13.230Z,23.17
2022-11-09T20:45:04.723Z,26.58
2022-11-09T20:48:10.661Z,27.58
2022-11-09T20:51:06.227Z,20.27
2022-11-09T20:53:56.565Z,28.38
2022-11-09T20:59:39.006Z,26.65
2022-11-09T21:02:29.340Z,26.77
2022-11-09T21:05:19.652Z,31.95
2022-11-09T21:11:01.220Z,26.80
2022-11-09T21:13:52.760Z,31.48
2022-11-09T21:16:44.650Z,30.15
2022-11-09T21:19:35.109Z,31.50
2022-11-09T21:25:55.365Z,31.27
2022-11-09T21:29:04.493Z,31.50
2022-11-09T21:31:56.478Z,30.50
2022-11-09T21:34:47.541Z,29.88
2022-11-09T21:37:37.888Z,27.15
2022-11-09T21:40:28.383Z,28.67
2022-11-09T21:46:09.074Z,28.63
2022-11-09T21:49:00.657Z,30.27
2022-11-09T21:51:51.571Z,30.20
2022-11-09T21:54:41.847Z,27.58
2022-11-09T21:57:32.454Z,28.17
2022-11-09T22:00:22.674Z,28.25
2022-11-09T22:03:12.958Z,28.38
2022-11-09T22:08:55.353Z,27.73
2022-11-09T22:15:13.487Z,25.75
2022-11-09T22:18:04.145Z,28.48
2022-11-09T22:20:56.460Z,27.52
2022-11-09T22:23:48.277Z,29.77
2022-11-09T22:26:39.125Z,28.00
2022-11-09T22:32:19.896Z,27.17
2022-11-09T22:35:10.202Z,26.25
2022-11-09T22:38:02.004Z,29.40
2022-11-09T22:40:54.043Z,25.50
2022-11-09T22:43:44.857Z,31.98
2022-11-09T22:46:35.501Z,27.48
2022-11-09T22:49:26.201Z,29.50
2022-11-09T22:52:18.035Z,27.67
2022-11-09T22:55:09.740Z,28.02
2022-11-09T22:58:01.527Z,27.70
2022-11-09T23:00:52.497Z,26.67
2022-11-09T23:03:43.379Z,27.20
2022-11-09T23:06:34.120Z,31.63
2022-11-09T23:09:24.689Z,29.95
2022-11-09T23:12:15.241Z,27.85
2022-11-09T23:15:13.205Z,29.75
2022-11-09T23:18:22.761Z,29.95
2022-11-09T23:21:14.210Z,30.88
2022-11-09T23:24:06.845Z,29.00
2022-11-09T23:26:57.679Z,29.10
2022-11-09T23:29:48.071Z,27.98
2022-11-09T23:32:39.598Z,30.77
2022-11-09T23:35:29.869Z,31.50
2022-11-09T23:38:20.264Z,29.67
2022-11-09T23:44:01.243Z,29.00
2022-11-09T23:46:52.094Z,30.40
2022-11-09T23:49:43.788Z,27.00
2022-11-09T23:52:34.583Z,30.80
2022-11-09T23:55:25.637Z,29.55
2022-11-09T23:58:15.923Z,27.40
